Aérodrome :
LOGIN :

S'inscrire | Disclaimer

   EN    FR    IT 

 










Légende :    VFR   VFR Marginal   IFR   IFR Intensif   IFR Très Intensif
Visi : 
Plafond : 
>= 8 km
>= 3000ft
5 à 8 km
1000 à 3000 ft
1500m à 5 km
500 à 1000 ft
800 à 1500m
200 à 500 ft
< 800m
< 200 ft
Symboles :   Orages  Brouillard  Fortes neiges  Fortes précipitations  Vent > 20 kt
SIGMETs :   Divers  Orages  Givrage  Turbulence  Onde Orograph.  Cendres Volcan.







- Altitude de l'aérodrome : 1411 ft
- Code IATA : GVA


LSGG - Genève Cointrin

DERNIER METAR :
  • 232350Z AUTO VRB02KT 9999 FEW066 BKN090 BKN110 19/11 Q1015 NOSIG

METARs EXPIRÉS :
  • 232320Z AUTO 29003KT 9999 BKN095 19/11 Q1015 NOSIG
  • 232250Z AUTO VRB03KT CAVOK 19/12 Q1015 NOSIG
  • 232220Z AUTO 24003KT 210V270 CAVOK 19/12 Q1015 NOSIG
  • 232150Z AUTO 27003KT 200V310 CAVOK 20/11 Q1016 NOSIG
  • 232120Z AUTO VRB02KT CAVOK 20/11 Q1016 NOSIG

TAF TAF LSGG
Valide du 24 à 00h jusqu'au 25 à 06h UTC


232325Z 2400/2506 23005KT CAVOK TX20/2415Z TN17/2404Z TN12/2504Z
BECMG 2401/2403 9999 SCT040 BKN070
BECMG 2403/2406 25015G25KT 7000 SHRA FEW010 SCT040TCU BKN050
BECMG 2409/2412 25010KT 9999 NSW SCT040 BKN060
TEMPO 2412/2421 SHRA
ATIS : +41 22 417 40 81
Pas de NOTAMs connus pour ce terrain.



MET'MAP, la Météo Aéronautique d'un coup d'oeil ! - Copyright ORBIFLY Décembre 2007 - Disclaimer

ORBIFLY MET'MAP TEAM :

Programmation & Développement : Alexandra Zaïnal
Conception & Développement : Baudouin d'Aumeries
Co-Programmation & Développement : Marc-Olivier Méhu
Soutien technique & logistique : Manuel Goepfert

Contact : metmap@orbifly.com




SOURCES & CREDITS :

   NOAA